sensor_id;sensor_type;location;lat;lon;timestamp;temperature;humidity
17333;DHT22;8784;50.94667800;7.08448400;2023-03-24T00:00:07;14.20;99.90
17333;DHT22;8784;50.94667800;7.08448400;2023-03-24T00:02:36;14.20;99.90
17333;DHT22;8784;50.94667800;7.08448400;2023-03-24T00:05:07;14.20;99.90
17333;DHT22;8784;50.94667800;7.08448400;2023-03-24T00:07:36;14.20;99.90
17333;DHT22;8784;50.94667800;7.08448400;2023-03-24T00:10:05;14.20;99.90
17333;DHT22;8784;50.94667800;7.08448400;2023-03-24T00:12:33;14.20;99.90
17333;DHT22;8784;50.94667800;7.08448400;2023-03-24T00:15:05;14.20;99.90
17333;DHT22;8784;50.94667800;7.08448400;2023-03-24T00:17:32;14.20;99.90
17333;DHT22;8784;50.94667800;7.08448400;2023-03-24T00:20:00;14.20;99.90
17333;DHT22;8784;50.94667800;7.08448400;2023-03-24T00:22:32;14.20;99.90
17333;DHT22;8784;50.94667800;7.08448400;2023-03-24T00:25:00;14.30;99.90
17333;DHT22;8784;50.94667800;7.08448400;2023-03-24T00:27:29;14.20;99.90
17333;DHT22;8784;50.94667800;7.08448400;2023-03-24T00:29:56;14.20;99.90
17333;DHT22;8784;50.94667800;7.08448400;2023-03-24T00:32:24;14.30;99.90
17333;DHT22;8784;50.94667800;7.08448400;2023-03-24T00:34:51;14.30;99.90
17333;DHT22;8784;50.94667800;7.08448400;2023-03-24T00:37:18;14.30;99.90
17333;DHT22;8784;50.94667800;7.08448400;2023-03-24T00:39:45;14.30;99.90
17333;DHT22;8784;50.94667800;7.08448400;2023-03-24T00:42:14;14.30;99.90
17333;DHT22;8784;50.94667800;7.08448400;2023-03-24T00:44:41;14.30;99.90
17333;DHT22;8784;50.94667800;7.08448400;2023-03-24T00:47:09;14.30;99.90
17333;DHT22;8784;50.94667800;7.08448400;2023-03-24T00:49:36;14.40;99.90
17333;DHT22;8784;50.94667800;7.08448400;2023-03-24T00:52:13;14.40;99.90
17333;DHT22;8784;50.94667800;7.08448400;2023-03-24T00:54:42;14.30;99.90
17333;DHT22;8784;50.94667800;7.08448400;2023-03-24T00:57:11;14.30;99.90
17333;DHT22;8784;50.94667800;7.08448400;2023-03-24T00:59:41;14.30;99.90
17333;DHT22;8784;50.94667800;7.08448400;2023-03-24T01:02:13;14.30;99.90
17333;DHT22;8784;50.94667800;7.08448400;2023-03-24T01:04:40;14.30;99.90
17333;DHT22;8784;50.94667800;7.08448400;2023-03-24T01:07:12;14.30;99.90
17333;DHT22;8784;50.94667800;7.08448400;2023-03-24T01:09:43;14.30;99.90
17333;DHT22;8784;50.94667800;7.08448400;2023-03-24T01:12:16;14.30;99.90
17333;DHT22;8784;50.94667800;7.08448400;2023-03-24T01:14:45;14.30;99.90
17333;DHT22;8784;50.94667800;7.08448400;2023-03-24T01:17:12;14.30;99.90
17333;DHT22;8784;50.94667800;7.08448400;2023-03-24T01:19:39;14.30;99.90
17333;DHT22;8784;50.94667800;7.08448400;2023-03-24T01:22:07;14.30;99.90
17333;DHT22;8784;50.94667800;7.08448400;2023-03-24T01:24:34;14.30;99.90
17333;DHT22;8784;50.94667800;7.08448400;2023-03-24T01:27:01;14.40;99.90
17333;DHT22;8784;50.94667800;7.08448400;2023-03-24T01:29:28;14.40;99.90
17333;DHT22;8784;50.94667800;7.08448400;2023-03-24T01:31:57;14.40;99.90
17333;DHT22;8784;50.94667800;7.08448400;2023-03-24T01:34:24;14.40;99.90
17333;DHT22;8784;50.94667800;7.08448400;2023-03-24T01:36:51;14.40;99.90
17333;DHT22;8784;50.94667800;7.08448400;2023-03-24T01:39:18;14.40;99.90
17333;DHT22;8784;50.94667800;7.08448400;2023-03-24T01:41:45;14.40;99.90
17333;DHT22;8784;50.94667800;7.08448400;2023-03-24T01:44:27;14.40;99.90
17333;DHT22;8784;50.94667800;7.08448400;2023-03-24T01:46:57;14.40;99.90
17333;DHT22;8784;50.94667800;7.08448400;2023-03-24T01:49:26;14.50;99.90
17333;DHT22;8784;50.94667800;7.08448400;2023-03-24T01:51:56;14.50;99.90
17333;DHT22;8784;50.94667800;7.08448400;2023-03-24T01:54:26;14.50;99.90
17333;DHT22;8784;50.94667800;7.08448400;2023-03-24T01:56:56;14.40;99.90
17333;DHT22;8784;50.94667800;7.08448400;2023-03-24T01:59:27;14.50;99.90
17333;DHT22;8784;50.94667800;7.08448400;2023-03-24T02:01:56;14.40;99.90
17333;DHT22;8784;50.94667800;7.08448400;2023-03-24T02:04:28;14.50;99.90
17333;DHT22;8784;50.94667800;7.08448400;2023-03-24T02:06:57;14.50;99.90
17333;DHT22;8784;50.94667800;7.08448400;2023-03-24T02:09:26;14.50;99.90
17333;DHT22;8784;50.94667800;7.08448400;2023-03-24T02:11:53;14.50;99.90
17333;DHT22;8784;50.94667800;7.08448400;2023-03-24T02:14:20;14.50;99.90
17333;DHT22;8784;50.94667800;7.08448400;2023-03-24T02:17:00;14.50;99.90
17333;DHT22;8784;50.94667800;7.08448400;2023-03-24T02:23:01;14.50;99.90
17333;DHT22;8784;50.94667800;7.08448400;2023-03-24T02:25:55;14.50;99.90
17333;DHT22;8784;50.94667800;7.08448400;2023-03-24T02:28:31;14.50;99.90
17333;DHT22;8784;50.94667800;7.08448400;2023-03-24T02:37:28;14.40;99.90
17333;DHT22;8784;50.94667800;7.08448400;2023-03-24T02:40:08;14.40;99.90
17333;DHT22;8784;50.94667800;7.08448400;2023-03-24T02:42:47;14.40;99.90
17333;DHT22;8784;50.94667800;7.08448400;2023-03-24T02:45:25;14.40;99.90
17333;DHT22;8784;50.94667800;7.08448400;2023-03-24T02:48:02;14.40;99.90
17333;DHT22;8784;50.94667800;7.08448400;2023-03-24T02:50:38;14.40;99.90
17333;DHT22;8784;50.94667800;7.08448400;2023-03-24T02:53:10;14.50;99.90
17333;DHT22;8784;50.94667800;7.08448400;2023-03-24T02:55:44;14.40;99.90
17333;DHT22;8784;50.94667800;7.08448400;2023-03-24T02:58:16;14.50;99.90
17333;DHT22;8784;50.94667800;7.08448400;2023-03-24T03:00:48;14.40;99.90
17333;DHT22;8784;50.94667800;7.08448400;2023-03-24T03:03:21;14.50;99.90
17333;DHT22;8784;50.94667800;7.08448400;2023-03-24T03:05:52;14.50;99.90
17333;DHT22;8784;50.94667800;7.08448400;2023-03-24T03:08:24;14.50;99.90
17333;DHT22;8784;50.94667800;7.08448400;2023-03-24T03:10:55;14.50;99.90
17333;DHT22;8784;50.94667800;7.08448400;2023-03-24T03:13:25;14.50;99.90
17333;DHT22;8784;50.94667800;7.08448400;2023-03-24T03:15:57;14.50;99.90
17333;DHT22;8784;50.94667800;7.08448400;2023-03-24T03:18:28;14.60;99.90
17333;DHT22;8784;50.94667800;7.08448400;2023-03-24T03:21:01;14.60;99.90
17333;DHT22;8784;50.94667800;7.08448400;2023-03-24T03:23:34;14.20;99.90
17333;DHT22;8784;50.94667800;7.08448400;2023-03-24T03:26:06;14.60;99.90
17333;DHT22;8784;50.94667800;7.08448400;2023-03-24T03:28:39;14.60;99.90
17333;DHT22;8784;50.94667800;7.08448400;2023-03-24T03:31:11;14.60;99.90
17333;DHT22;8784;50.94667800;7.08448400;2023-03-24T03:33:44;14.60;99.90
17333;DHT22;8784;50.94667800;7.08448400;2023-03-24T03:36:17;14.60;99.90
17333;DHT22;8784;50.94667800;7.08448400;2023-03-24T03:38:51;14.60;99.90
17333;DHT22;8784;50.94667800;7.08448400;2023-03-24T03:41:22;14.60;99.90
17333;DHT22;8784;50.94667800;7.08448400;2023-03-24T03:43:49;14.60;99.90
17333;DHT22;8784;50.94667800;7.08448400;2023-03-24T03:46:17;14.60;99.90
17333;DHT22;8784;50.94667800;7.08448400;2023-03-24T03:48:45;14.60;99.90
17333;DHT22;8784;50.94667800;7.08448400;2023-03-24T03:51:12;14.60;99.90
17333;DHT22;8784;50.94667800;7.08448400;2023-03-24T03:53:51;14.70;99.90
17333;DHT22;8784;50.94667800;7.08448400;2023-03-24T03:56:24;14.70;99.90
17333;DHT22;8784;50.94667800;7.08448400;2023-03-24T03:58:52;14.70;99.90
17333;DHT22;8784;50.94667800;7.08448400;2023-03-24T04:01:21;14.70;99.90
17333;DHT22;8784;50.94667800;7.08448400;2023-03-24T04:04:01;14.70;99.90
17333;DHT22;8784;50.94667800;7.08448400;2023-03-24T04:06:38;14.70;99.90
17333;DHT22;8784;50.94667800;7.08448400;2023-03-24T04:09:21;14.70;99.90
17333;DHT22;8784;50.94667800;7.08448400;2023-03-24T04:12:07;14.70;99.90
17333;DHT22;8784;50.94667800;7.08448400;2023-03-24T04:18:01;14.70;99.90
17333;DHT22;8784;50.94667800;7.08448400;2023-03-24T04:20:36;14.80;99.90
17333;DHT22;8784;50.94667800;7.08448400;2023-03-24T04:23:20;14.80;99.90
17333;DHT22;8784;50.94667800;7.08448400;2023-03-24T04:25:55;14.80;99.90
17333;DHT22;8784;50.94667800;7.08448400;2023-03-24T04:28:34;14.80;99.90
17333;DHT22;8784;50.94667800;7.08448400;2023-03-24T04:31:06;14.80;99.90
17333;DHT22;8784;50.94667800;7.08448400;2023-03-24T04:33:45;14.80;99.90
17333;DHT22;8784;50.94667800;7.08448400;2023-03-24T04:36:19;14.80;99.90
17333;DHT22;8784;50.94667800;7.08448400;2023-03-24T04:38:50;14.80;99.90
17333;DHT22;8784;50.94667800;7.08448400;2023-03-24T04:41:20;14.80;99.90
17333;DHT22;8784;50.94667800;7.08448400;2023-03-24T04:43:51;14.80;99.90
17333;DHT22;8784;50.94667800;7.08448400;2023-03-24T04:46:20;14.80;99.90
17333;DHT22;8784;50.94667800;7.08448400;2023-03-24T04:48:49;14.80;99.90
17333;DHT22;8784;50.94667800;7.08448400;2023-03-24T04:51:18;14.70;99.90
17333;DHT22;8784;50.94667800;7.08448400;2023-03-24T04:53:46;14.70;99.90
17333;DHT22;8784;50.94667800;7.08448400;2023-03-24T04:56:25;14.60;99.90
17333;DHT22;8784;50.94667800;7.08448400;2023-03-24T04:58:55;14.60;99.90
17333;DHT22;8784;50.94667800;7.08448400;2023-03-24T05:01:23;14.60;99.90
17333;DHT22;8784;50.94667800;7.08448400;2023-03-24T05:03:55;14.40;99.90
17333;DHT22;8784;50.94667800;7.08448400;2023-03-24T05:06:22;14.30;99.90
17333;DHT22;8784;50.94667800;7.08448400;2023-03-24T05:08:49;14.10;99.90
17333;DHT22;8784;50.94667800;7.08448400;2023-03-24T05:11:17;14.00;99.90
17333;DHT22;8784;50.94667800;7.08448400;2023-03-24T05:13:45;13.70;99.90
17333;DHT22;8784;50.94667800;7.08448400;2023-03-24T05:16:13;13.50;99.90
17333;DHT22;8784;50.94667800;7.08448400;2023-03-24T05:18:40;13.40;99.90
17333;DHT22;8784;50.94667800;7.08448400;2023-03-24T05:21:08;13.30;99.90
17333;DHT22;8784;50.94667800;7.08448400;2023-03-24T05:23:35;13.10;99.90
17333;DHT22;8784;50.94667800;7.08448400;2023-03-24T05:26:01;13.00;99.90
17333;DHT22;8784;50.94667800;7.08448400;2023-03-24T05:28:28;13.10;99.90
17333;DHT22;8784;50.94667800;7.08448400;2023-03-24T05:30:56;13.00;99.90
17333;DHT22;8784;50.94667800;7.08448400;2023-03-24T05:33:25;13.10;99.90
17333;DHT22;8784;50.94667800;7.08448400;2023-03-24T05:35:52;13.10;99.90
17333;DHT22;8784;50.94667800;7.08448400;2023-03-24T05:38:19;13.00;99.90
17333;DHT22;8784;50.94667800;7.08448400;2023-03-24T05:40:45;12.90;99.90
17333;DHT22;8784;50.94667800;7.08448400;2023-03-24T05:43:12;12.90;99.90
17333;DHT22;8784;50.94667800;7.08448400;2023-03-24T05:45:40;12.90;99.90
17333;DHT22;8784;50.94667800;7.08448400;2023-03-24T05:48:06;12.90;99.90
17333;DHT22;8784;50.94667800;7.08448400;2023-03-24T05:50:35;12.90;99.90
17333;DHT22;8784;50.94667800;7.08448400;2023-03-24T05:53:01;12.90;99.90
17333;DHT22;8784;50.94667800;7.08448400;2023-03-24T05:55:29;12.90;99.90
17333;DHT22;8784;50.94667800;7.08448400;2023-03-24T05:57:57;13.00;99.90
17333;DHT22;8784;50.94667800;7.08448400;2023-03-24T06:00:27;13.00;99.90
17333;DHT22;8784;50.94667800;7.08448400;2023-03-24T06:02:55;13.10;99.90
17333;DHT22;8784;50.94667800;7.08448400;2023-03-24T06:05:23;13.20;99.90
17333;DHT22;8784;50.94667800;7.08448400;2023-03-24T06:07:51;13.30;99.90
17333;DHT22;8784;50.94667800;7.08448400;2023-03-24T06:10:23;13.40;99.90
17333;DHT22;8784;50.94667800;7.08448400;2023-03-24T06:12:50;13.40;99.90
17333;DHT22;8784;50.94667800;7.08448400;2023-03-24T06:15:18;13.40;99.90
17333;DHT22;8784;50.94667800;7.08448400;2023-03-24T06:17:45;13.40;99.90
17333;DHT22;8784;50.94667800;7.08448400;2023-03-24T06:20:12;13.40;99.90
17333;DHT22;8784;50.94667800;7.08448400;2023-03-24T06:22:43;13.40;99.90
17333;DHT22;8784;50.94667800;7.08448400;2023-03-24T06:25:13;13.40;99.90
17333;DHT22;8784;50.94667800;7.08448400;2023-03-24T06:27:42;13.30;99.90
17333;DHT22;8784;50.94667800;7.08448400;2023-03-24T06:30:12;13.30;99.90
17333;DHT22;8784;50.94667800;7.08448400;2023-03-24T06:32:39;13.30;99.90
17333;DHT22;8784;50.94667800;7.08448400;2023-03-24T06:35:08;13.30;99.90
17333;DHT22;8784;50.94667800;7.08448400;2023-03-24T06:37:35;13.30;99.90
17333;DHT22;8784;50.94667800;7.08448400;2023-03-24T06:40:02;13.40;99.90
17333;DHT22;8784;50.94667800;7.08448400;2023-03-24T06:42:36;13.40;99.90
17333;DHT22;8784;50.94667800;7.08448400;2023-03-24T06:45:04;13.60;99.90
17333;DHT22;8784;50.94667800;7.08448400;2023-03-24T06:47:31;13.80;99.90
17333;DHT22;8784;50.94667800;7.08448400;2023-03-24T06:49:59;13.90;99.90
17333;DHT22;8784;50.94667800;7.08448400;2023-03-24T06:52:26;14.00;99.90
17333;DHT22;8784;50.94667800;7.08448400;2023-03-24T06:54:53;14.00;99.90
17333;DHT22;8784;50.94667800;7.08448400;2023-03-24T06:57:20;13.90;99.90
17333;DHT22;8784;50.94667800;7.08448400;2023-03-24T06:59:48;13.90;99.90
17333;DHT22;8784;50.94667800;7.08448400;2023-03-24T07:02:15;13.80;99.90
17333;DHT22;8784;50.94667800;7.08448400;2023-03-24T07:04:42;13.80;99.90
17333;DHT22;8784;50.94667800;7.08448400;2023-03-24T07:07:10;13.70;99.90
17333;DHT22;8784;50.94667800;7.08448400;2023-03-24T07:09:37;13.70;99.90
17333;DHT22;8784;50.94667800;7.08448400;2023-03-24T07:12:05;13.60;99.90
17333;DHT22;8784;50.94667800;7.08448400;2023-03-24T07:14:32;13.50;99.90
17333;DHT22;8784;50.94667800;7.08448400;2023-03-24T07:17:00;13.50;99.90
17333;DHT22;8784;50.94667800;7.08448400;2023-03-24T07:19:27;13.40;99.90
17333;DHT22;8784;50.94667800;7.08448400;2023-03-24T07:21:54;13.40;99.90
17333;DHT22;8784;50.94667800;7.08448400;2023-03-24T07:24:21;13.40;99.90
17333;DHT22;8784;50.94667800;7.08448400;2023-03-24T07:26:48;13.40;99.90
17333;DHT22;8784;50.94667800;7.08448400;2023-03-24T07:29:15;13.40;99.90
17333;DHT22;8784;50.94667800;7.08448400;2023-03-24T07:31:42;13.40;99.90
17333;DHT22;8784;50.94667800;7.08448400;2023-03-24T07:34:10;13.30;99.90
17333;DHT22;8784;50.94667800;7.08448400;2023-03-24T07:36:37;13.30;99.90
17333;DHT22;8784;50.94667800;7.08448400;2023-03-24T07:39:04;13.20;99.90
17333;DHT22;8784;50.94667800;7.08448400;2023-03-24T07:41:31;13.20;99.90
17333;DHT22;8784;50.94667800;7.08448400;2023-03-24T07:43:58;13.20;99.90
17333;DHT22;8784;50.94667800;7.08448400;2023-03-24T07:46:25;13.20;99.90
17333;DHT22;8784;50.94667800;7.08448400;2023-03-24T07:48:52;13.30;99.90
17333;DHT22;8784;50.94667800;7.08448400;2023-03-24T07:51:20;13.30;99.90
17333;DHT22;8784;50.94667800;7.08448400;2023-03-24T07:53:47;13.30;99.90
17333;DHT22;8784;50.94667800;7.08448400;2023-03-24T07:56:14;13.30;99.90
17333;DHT22;8784;50.94667800;7.08448400;2023-03-24T07:58:41;13.30;99.90
17333;DHT22;8784;50.94667800;7.08448400;2023-03-24T08:01:08;13.40;99.90
17333;DHT22;8784;50.94667800;7.08448400;2023-03-24T08:03:35;13.50;99.90
17333;DHT22;8784;50.94667800;7.08448400;2023-03-24T08:06:03;13.50;99.90
17333;DHT22;8784;50.94667800;7.08448400;2023-03-24T08:08:32;13.60;99.90
17333;DHT22;8784;50.94667800;7.08448400;2023-03-24T08:10:59;13.70;99.90
17333;DHT22;8784;50.94667800;7.08448400;2023-03-24T08:13:26;13.70;99.90
17333;DHT22;8784;50.94667800;7.08448400;2023-03-24T08:15:53;13.70;99.90
17333;DHT22;8784;50.94667800;7.08448400;2023-03-24T08:18:20;13.80;99.90
17333;DHT22;8784;50.94667800;7.08448400;2023-03-24T08:20:49;13.90;99.90
17333;DHT22;8784;50.94667800;7.08448400;2023-03-24T08:23:19;14.00;99.90
17333;DHT22;8784;50.94667800;7.08448400;2023-03-24T08:25:48;14.20;99.90
17333;DHT22;8784;50.94667800;7.08448400;2023-03-24T08:28:15;14.30;99.90
17333;DHT22;8784;50.94667800;7.08448400;2023-03-24T08:30:43;14.40;99.90
17333;DHT22;8784;50.94667800;7.08448400;2023-03-24T08:33:11;14.40;99.90
17333;DHT22;8784;50.94667800;7.08448400;2023-03-24T08:35:39;14.50;99.90
17333;DHT22;8784;50.94667800;7.08448400;2023-03-24T08:38:07;14.70;99.90
17333;DHT22;8784;50.94667800;7.08448400;2023-03-24T08:40:35;14.80;99.90
17333;DHT22;8784;50.94667800;7.08448400;2023-03-24T08:43:06;15.10;99.90
17333;DHT22;8784;50.94667800;7.08448400;2023-03-24T08:45:34;15.50;99.90
17333;DHT22;8784;50.94667800;7.08448400;2023-03-24T08:48:03;15.90;99.90
17333;DHT22;8784;50.94667800;7.08448400;2023-03-24T08:50:33;16.10;99.90
17333;DHT22;8784;50.94667800;7.08448400;2023-03-24T08:53:01;16.20;99.90
17333;DHT22;8784;50.94667800;7.08448400;2023-03-24T08:55:28;16.20;99.90
17333;DHT22;8784;50.94667800;7.08448400;2023-03-24T08:57:55;16.40;99.90
17333;DHT22;8784;50.94667800;7.08448400;2023-03-24T09:00:24;16.70;99.60
17333;DHT22;8784;50.94667800;7.08448400;2023-03-24T09:02:52;16.90;99.00
17333;DHT22;8784;50.94667800;7.08448400;2023-03-24T09:05:20;17.30;98.20
17333;DHT22;8784;50.94667800;7.08448400;2023-03-24T09:07:49;17.70;97.40
17333;DHT22;8784;50.94667800;7.08448400;2023-03-24T09:10:17;18.10;96.50
17333;DHT22;8784;50.94667800;7.08448400;2023-03-24T09:12:45;18.10;95.90
17333;DHT22;8784;50.94667800;7.08448400;2023-03-24T09:15:12;17.90;95.30
17333;DHT22;8784;50.94667800;7.08448400;2023-03-24T09:17:41;17.90;94.80
17333;DHT22;8784;50.94667800;7.08448400;2023-03-24T09:20:10;17.80;94.40
17333;DHT22;8784;50.94667800;7.08448400;2023-03-24T09:22:37;17.90;94.40
17333;DHT22;8784;50.94667800;7.08448400;2023-03-24T09:25:06;18.10;94.10
17333;DHT22;8784;50.94667800;7.08448400;2023-03-24T09:27:33;19.20;93.70
17333;DHT22;8784;50.94667800;7.08448400;2023-03-24T09:30:00;19.70;92.40
17333;DHT22;8784;50.94667800;7.08448400;2023-03-24T09:32:27;20.20;91.20
17333;DHT22;8784;50.94667800;7.08448400;2023-03-24T09:34:55;19.90;89.40
17333;DHT22;8784;50.94667800;7.08448400;2023-03-24T09:37:22;20.10;89.90
17333;DHT22;8784;50.94667800;7.08448400;2023-03-24T09:39:49;19.80;88.50
17333;DHT22;8784;50.94667800;7.08448400;2023-03-24T09:42:20;19.30;88.40
17333;DHT22;8784;50.94667800;7.08448400;2023-03-24T09:44:51;18.80;88.70
17333;DHT22;8784;50.94667800;7.08448400;2023-03-24T09:47:25;18.90;89.70
17333;DHT22;8784;50.94667800;7.08448400;2023-03-24T09:49:59;18.70;88.90
17333;DHT22;8784;50.94667800;7.08448400;2023-03-24T09:52:31;19.40;89.20
17333;DHT22;8784;50.94667800;7.08448400;2023-03-24T09:55:00;19.60;88.50
17333;DHT22;8784;50.94667800;7.08448400;2023-03-24T09:57:33;19.90;87.80
17333;DHT22;8784;50.94667800;7.08448400;2023-03-24T10:00:08;20.20;86.60
17333;DHT22;8784;50.94667800;7.08448400;2023-03-24T10:02:35;20.00;85.40
17333;DHT22;8784;50.94667800;7.08448400;2023-03-24T10:05:12;20.20;85.50
17333;DHT22;8784;50.94667800;7.08448400;2023-03-24T10:07:44;20.30;84.60
17333;DHT22;8784;50.94667800;7.08448400;2023-03-24T10:10:20;20.10;84.10
17333;DHT22;8784;50.94667800;7.08448400;2023-03-24T10:12:48;19.80;84.30
17333;DHT22;8784;50.94667800;7.08448400;2023-03-24T10:15:21;19.90;84.30
17333;DHT22;8784;50.94667800;7.08448400;2023-03-24T10:17:55;20.70;83.80
17333;DHT22;8784;50.94667800;7.08448400;2023-03-24T10:20:32;20.50;81.60
17333;DHT22;8784;50.94667800;7.08448400;2023-03-24T10:23:12;20.80;81.40
17333;DHT22;8784;50.94667800;7.08448400;2023-03-24T10:25:50;22.40;79.40
17333;DHT22;8784;50.94667800;7.08448400;2023-03-24T10:28:19;24.70;75.30
17333;DHT22;8784;50.94667800;7.08448400;2023-03-24T10:30:48;26.50;72.30
17333;DHT22;8784;50.94667800;7.08448400;2023-03-24T10:33:17;28.00;69.10
17333;DHT22;8784;50.94667800;7.08448400;2023-03-24T10:35:57;27.70;67.20
17333;DHT22;8784;50.94667800;7.08448400;2023-03-24T10:38:27;26.40;66.80
17333;DHT22;8784;50.94667800;7.08448400;2023-03-24T10:40:54;25.10;67.40
17333;DHT22;8784;50.94667800;7.08448400;2023-03-24T10:43:22;24.20;67.70
17333;DHT22;8784;50.94667800;7.08448400;2023-03-24T10:45:52;23.20;68.10
17333;DHT22;8784;50.94667800;7.08448400;2023-03-24T10:48:41;22.20;68.70
17333;DHT22;8784;50.94667800;7.08448400;2023-03-24T10:51:14;21.50;69.70
17333;DHT22;8784;50.94667800;7.08448400;2023-03-24T10:53:43;21.00;70.70
17333;DHT22;8784;50.94667800;7.08448400;2023-03-24T10:56:15;20.60;71.30
17333;DHT22;8784;50.94667800;7.08448400;2023-03-24T10:58:43;20.10;71.70
17333;DHT22;8784;50.94667800;7.08448400;2023-03-24T11:01:22;19.70;72.30
17333;DHT22;8784;50.94667800;7.08448400;2023-03-24T11:03:50;19.40;72.70
17333;DHT22;8784;50.94667800;7.08448400;2023-03-24T11:06:20;19.20;73.10
17333;DHT22;8784;50.94667800;7.08448400;2023-03-24T11:08:47;19.00;73.30
17333;DHT22;8784;50.94667800;7.08448400;2023-03-24T11:11:34;18.80;73.60
17333;DHT22;8784;50.94667800;7.08448400;2023-03-24T11:14:02;18.60;73.50
17333;DHT22;8784;50.94667800;7.08448400;2023-03-24T11:16:30;18.30;73.20
17333;DHT22;8784;50.94667800;7.08448400;2023-03-24T11:18:59;18.10;73.70
17333;DHT22;8784;50.94667800;7.08448400;2023-03-24T11:21:29;17.90;74.20
17333;DHT22;8784;50.94667800;7.08448400;2023-03-24T11:23:58;17.80;74.50
17333;DHT22;8784;50.94667800;7.08448400;2023-03-24T11:26:29;17.60;74.60
17333;DHT22;8784;50.94667800;7.08448400;2023-03-24T11:28:59;17.50;74.90
17333;DHT22;8784;50.94667800;7.08448400;2023-03-24T11:31:27;17.40;75.00
17333;DHT22;8784;50.94667800;7.08448400;2023-03-24T11:33:57;17.30;75.40
17333;DHT22;8784;50.94667800;7.08448400;2023-03-24T11:36:47;17.40;75.60
17333;DHT22;8784;50.94667800;7.08448400;2023-03-24T11:39:20;17.60;75.40
17333;DHT22;8784;50.94667800;7.08448400;2023-03-24T11:42:10;17.80;75.20
17333;DHT22;8784;50.94667800;7.08448400;2023-03-24T11:44:44;17.90;74.80
17333;DHT22;8784;50.94667800;7.08448400;2023-03-24T11:47:15;17.90;75.00
17333;DHT22;8784;50.94667800;7.08448400;2023-03-24T11:49:47;17.90;75.10
17333;DHT22;8784;50.94667800;7.08448400;2023-03-24T11:52:21;18.00;75.10
17333;DHT22;8784;50.94667800;7.08448400;2023-03-24T11:54:49;18.10;75.30
17333;DHT22;8784;50.94667800;7.08448400;2023-03-24T11:57:23;18.10;75.20
17333;DHT22;8784;50.94667800;7.08448400;2023-03-24T11:59:56;18.20;75.00
17333;DHT22;8784;50.94667800;7.08448400;2023-03-24T12:02:40;18.20;74.60
17333;DHT22;8784;50.94667800;7.08448400;2023-03-24T12:05:17;18.10;75.00
17333;DHT22;8784;50.94667800;7.08448400;2023-03-24T12:08:01;18.20;74.00
17333;DHT22;8784;50.94667800;7.08448400;2023-03-24T12:10:42;18.20;74.00
17333;DHT22;8784;50.94667800;7.08448400;2023-03-24T12:13:15;18.10;74.10
17333;DHT22;8784;50.94667800;7.08448400;2023-03-24T12:15:59;18.00;74.40
17333;DHT22;8784;50.94667800;7.08448400;2023-03-24T12:18:59;18.00;74.10
17333;DHT22;8784;50.94667800;7.08448400;2023-03-24T12:21:40;17.90;74.30
17333;DHT22;8784;50.94667800;7.08448400;2023-03-24T12:24:22;17.70;74.20
17333;DHT22;8784;50.94667800;7.08448400;2023-03-24T12:26:56;17.70;74.20
17333;DHT22;8784;50.94667800;7.08448400;2023-03-24T12:29:47;17.70;74.20
17333;DHT22;8784;50.94667800;7.08448400;2023-03-24T12:32:36;17.70;73.70
17333;DHT22;8784;50.94667800;7.08448400;2023-03-24T12:35:23;17.90;73.70
17333;DHT22;8784;50.94667800;7.08448400;2023-03-24T12:38:01;18.00;73.30
17333;DHT22;8784;50.94667800;7.08448400;2023-03-24T12:40:57;18.10;72.80
17333;DHT22;8784;50.94667800;7.08448400;2023-03-24T12:43:35;18.30;71.90
17333;DHT22;8784;50.94667800;7.08448400;2023-03-24T12:46:11;18.30;71.90
17333;DHT22;8784;50.94667800;7.08448400;2023-03-24T12:49:05;18.30;71.70
17333;DHT22;8784;50.94667800;7.08448400;2023-03-24T12:51:44;18.30;71.60
17333;DHT22;8784;50.94667800;7.08448400;2023-03-24T12:54:23;18.40;72.00
17333;DHT22;8784;50.94667800;7.08448400;2023-03-24T12:56:58;18.50;71.40
17333;DHT22;8784;50.94667800;7.08448400;2023-03-24T12:59:31;18.50;71.30
17333;DHT22;8784;50.94667800;7.08448400;2023-03-24T13:02:08;18.40;71.00
17333;DHT22;8784;50.94667800;7.08448400;2023-03-24T13:04:39;18.30;71.00
17333;DHT22;8784;50.94667800;7.08448400;2023-03-24T13:07:09;18.30;71.10
17333;DHT22;8784;50.94667800;7.08448400;2023-03-24T13:09:42;18.20;71.10
17333;DHT22;8784;50.94667800;7.08448400;2023-03-24T13:12:15;18.30;71.10
17333;DHT22;8784;50.94667800;7.08448400;2023-03-24T13:14:50;18.30;70.90
17333;DHT22;8784;50.94667800;7.08448400;2023-03-24T13:17:21;18.30;70.80
17333;DHT22;8784;50.94667800;7.08448400;2023-03-24T13:19:50;18.20;70.80
17333;DHT22;8784;50.94667800;7.08448400;2023-03-24T13:22:19;18.30;70.70
17333;DHT22;8784;50.94667800;7.08448400;2023-03-24T13:24:46;18.40;70.40
17333;DHT22;8784;50.94667800;7.08448400;2023-03-24T13:27:19;18.40;70.30
17333;DHT22;8784;50.94667800;7.08448400;2023-03-24T13:32:41;18.50;70.20
17333;DHT22;8784;50.94667800;7.08448400;2023-03-24T13:35:16;18.40;69.30
17333;DHT22;8784;50.94667800;7.08448400;2023-03-24T13:37:49;18.40;69.30
17333;DHT22;8784;50.94667800;7.08448400;2023-03-24T13:40:21;18.30;69.30
17333;DHT22;8784;50.94667800;7.08448400;2023-03-24T13:42:53;18.30;69.20
17333;DHT22;8784;50.94667800;7.08448400;2023-03-24T13:45:34;18.20;69.00
17333;DHT22;8784;50.94667800;7.08448400;2023-03-24T13:48:05;18.20;69.20
17333;DHT22;8784;50.94667800;7.08448400;2023-03-24T13:50:51;18.10;70.70
17333;DHT22;8784;50.94667800;7.08448400;2023-03-24T13:53:30;18.10;71.50
17333;DHT22;8784;50.94667800;7.08448400;2023-03-24T13:55:59;18.20;70.80
17333;DHT22;8784;50.94667800;7.08448400;2023-03-24T13:58:48;18.20;70.70
17333;DHT22;8784;50.94667800;7.08448400;2023-03-24T14:01:18;18.20;70.10
17333;DHT22;8784;50.94667800;7.08448400;2023-03-24T14:04:19;18.20;70.40
17333;DHT22;8784;50.94667800;7.08448400;2023-03-24T14:06:47;18.10;69.80
17333;DHT22;8784;50.94667800;7.08448400;2023-03-24T14:09:17;18.00;69.70
17333;DHT22;8784;50.94667800;7.08448400;2023-03-24T14:12:19;17.90;69.80